This is the latest recevied weather packets stored in our database for station/object OK2ILA-14. If no packets are shown the sender has not sent any weather packets the latest 10 day(s).
| Time | Temp. | Humidity | Pressure | Rain* | Wind** | Luminosity | Snow |
|---|---|---|---|---|---|---|---|
| 1777775057 | 5° C | 79% | 1018.2 hPa | - | - | - | - |
| 1777774457 | 5° C | 78% | 1018.2 hPa | - | - | - | - |
| 1777769656 | 6.11° C | 74% | 1018.4 hPa | - | - | - | - |
| 1777766655 | 6.67° C | 74% | 1018.3 hPa | - | - | - | - |
| 1777765455 | 6.67° C | 74% | 1018.4 hPa | - | - | - | - |
| 1777761854 | 6.67° C | 73% | 1018.9 hPa | - | - | - | - |
| 1777761260 | 7.22° C | 72% | 1018.9 hPa | - | - | - | - |
| 1777760053 | 7.78° C | 70% | 1018.9 hPa | - | - | - | - |
| 1777759455 | 8.33° C | 68% | 1019 hPa | - | - | - | - |
| 1777758853 | 8.33° C | 67% | 1018.9 hPa | - | - | - | - |
| 1777757653 | 8.89° C | 66% | 1019 hPa | - | - | - | - |
| 1777757053 | 8.89° C | 66% | 1019.1 hPa | - | - | - | - |
| 1777755853 | 9.44° C | 64% | 1019.3 hPa | - | - | - | - |
| 1777754052 | 10° C | 63% | 1019.3 hPa | - | - | - | - |
| 1777753452 | 10.56° C | 63% | 1019.2 hPa | - | - | - | - |
| 1777752852 | 10.56° C | 61% | 1019.3 hPa | - | - | - | - |
| 1777752251 | 11.11° C | 61% | 1019.4 hPa | - | - | - | - |
| 1777751651 | 11.11° C | 60% | 1019.3 hPa | - | - | - | - |
| 1777750451 | 11.67° C | 59% | 1019.3 hPa | - | - | - | - |
| 1777749851 | 12.22° C | 60% | 1019.3 hPa | - | - | - | - |
| 1777749251 | 11.67° C | 62% | 1019.3 hPa | - | - | - | - |
| 1777748651 | 12.22° C | 60% | 1019.1 hPa | - | - | - | - |
| 1777746850 | 12.78° C | 57% | 1019 hPa | - | - | - | - |
| 1777745650 | 15.56° C | 45% | 1018.7 hPa | - | - | - | - |
| 1777745050 | 18.33° C | 36% | 1018.6 hPa | - | - | - | - |
* Rain since midnight (hover to see other rain measurements)
** Current wind speed in m/s (hover to see current wind gust speed)